sensor_id;sensor_type;location;lat;lon;timestamp;temperature;humidity
23685;DHT22;12020;51.384;6.908;2023-03-23T00:01:48;12.40;99.90
23685;DHT22;12020;51.384;6.908;2023-03-23T00:04:17;12.40;99.90
23685;DHT22;12020;51.384;6.908;2023-03-23T00:06:43;12.40;99.90
23685;DHT22;12020;51.384;6.908;2023-03-23T00:09:12;12.40;99.90
23685;DHT22;12020;51.384;6.908;2023-03-23T00:11:38;12.50;99.90
23685;DHT22;12020;51.384;6.908;2023-03-23T00:14:04;12.50;99.90
23685;DHT22;12020;51.384;6.908;2023-03-23T00:16:32;12.50;99.90
23685;DHT22;12020;51.384;6.908;2023-03-23T00:19:04;12.50;99.90
23685;DHT22;12020;51.384;6.908;2023-03-23T00:21:36;12.50;99.90
23685;DHT22;12020;51.384;6.908;2023-03-23T00:26:33;12.60;99.90
23685;DHT22;12020;51.384;6.908;2023-03-23T00:29:04;12.60;99.90
23685;DHT22;12020;51.384;6.908;2023-03-23T00:31:31;12.60;99.90
23685;DHT22;12020;51.384;6.908;2023-03-23T00:34:03;12.60;99.90
23685;DHT22;12020;51.384;6.908;2023-03-23T00:36:33;12.60;99.90
23685;DHT22;12020;51.384;6.908;2023-03-23T00:39:02;12.60;99.90
23685;DHT22;12020;51.384;6.908;2023-03-23T00:41:28;12.70;99.90
23685;DHT22;12020;51.384;6.908;2023-03-23T00:43:57;12.70;99.90
23685;DHT22;12020;51.384;6.908;2023-03-23T00:46:23;12.70;99.90
23685;DHT22;12020;51.384;6.908;2023-03-23T00:48:50;12.70;99.90
23685;DHT22;12020;51.384;6.908;2023-03-23T00:51:19;12.70;99.90
23685;DHT22;12020;51.384;6.908;2023-03-23T00:53:46;12.80;99.90
23685;DHT22;12020;51.384;6.908;2023-03-23T00:56:12;12.80;99.90
23685;DHT22;12020;51.384;6.908;2023-03-23T00:58:38;12.80;99.90
23685;DHT22;12020;51.384;6.908;2023-03-23T01:01:04;12.70;99.90
23685;DHT22;12020;51.384;6.908;2023-03-23T01:03:30;12.70;99.90
23685;DHT22;12020;51.384;6.908;2023-03-23T01:05:55;12.70;99.90
23685;DHT22;12020;51.384;6.908;2023-03-23T01:08:22;12.70;99.90
23685;DHT22;12020;51.384;6.908;2023-03-23T01:10:49;12.70;99.90
23685;DHT22;12020;51.384;6.908;2023-03-23T01:13:15;12.70;99.90
23685;DHT22;12020;51.384;6.908;2023-03-23T01:15:42;12.70;99.90
23685;DHT22;12020;51.384;6.908;2023-03-23T01:18:08;12.80;99.90
23685;DHT22;12020;51.384;6.908;2023-03-23T01:20:38;12.80;99.90
23685;DHT22;12020;51.384;6.908;2023-03-23T01:23:03;12.80;99.90
23685;DHT22;12020;51.384;6.908;2023-03-23T01:25:32;12.80;99.90
23685;DHT22;12020;51.384;6.908;2023-03-23T01:28:00;12.80;99.90
23685;DHT22;12020;51.384;6.908;2023-03-23T01:30:26;12.70;99.90
23685;DHT22;12020;51.384;6.908;2023-03-23T01:32:52;12.80;99.90
23685;DHT22;12020;51.384;6.908;2023-03-23T01:35:18;12.80;99.90
23685;DHT22;12020;51.384;6.908;2023-03-23T01:37:44;12.80;99.90
23685;DHT22;12020;51.384;6.908;2023-03-23T01:40:10;12.80;99.90
23685;DHT22;12020;51.384;6.908;2023-03-23T01:42:37;12.80;99.90
23685;DHT22;12020;51.384;6.908;2023-03-23T01:48:03;12.70;99.90
23685;DHT22;12020;51.384;6.908;2023-03-23T01:50:55;12.70;99.90
23685;DHT22;12020;51.384;6.908;2023-03-23T01:53:18;12.70;99.90
23685;DHT22;12020;51.384;6.908;2023-03-23T01:55:46;12.70;99.90
23685;DHT22;12020;51.384;6.908;2023-03-23T01:58:17;12.70;99.90
23685;DHT22;12020;51.384;6.908;2023-03-23T02:00:45;12.70;99.90
23685;DHT22;12020;51.384;6.908;2023-03-23T02:03:12;12.70;99.90
23685;DHT22;12020;51.384;6.908;2023-03-23T02:05:41;12.60;99.90
23685;DHT22;12020;51.384;6.908;2023-03-23T02:08:09;12.60;99.90
23685;DHT22;12020;51.384;6.908;2023-03-23T02:10:37;12.60;99.90
23685;DHT22;12020;51.384;6.908;2023-03-23T02:13:04;12.60;99.90
23685;DHT22;12020;51.384;6.908;2023-03-23T02:15:44;12.60;99.90
23685;DHT22;12020;51.384;6.908;2023-03-23T02:26:08;12.60;99.90
23685;DHT22;12020;51.384;6.908;2023-03-23T02:29:01;12.60;99.90
23685;DHT22;12020;51.384;6.908;2023-03-23T02:34:52;12.60;99.90
23685;DHT22;12020;51.384;6.908;2023-03-23T02:37:29;12.60;99.90
23685;DHT22;12020;51.384;6.908;2023-03-23T02:40:03;12.50;99.90
23685;DHT22;12020;51.384;6.908;2023-03-23T02:42:36;12.50;99.90
23685;DHT22;12020;51.384;6.908;2023-03-23T02:45:05;12.50;99.90
23685;DHT22;12020;51.384;6.908;2023-03-23T02:47:35;12.50;99.90
23685;DHT22;12020;51.384;6.908;2023-03-23T02:50:02;12.50;99.90
23685;DHT22;12020;51.384;6.908;2023-03-23T02:52:31;12.40;99.90
23685;DHT22;12020;51.384;6.908;2023-03-23T02:55:00;12.40;99.90
23685;DHT22;12020;51.384;6.908;2023-03-23T02:57:26;12.40;99.90
23685;DHT22;12020;51.384;6.908;2023-03-23T02:59:53;12.40;99.90
23685;DHT22;12020;51.384;6.908;2023-03-23T03:02:39;12.40;99.90
23685;DHT22;12020;51.384;6.908;2023-03-23T03:10:57;12.30;99.90
23685;DHT22;12020;51.384;6.908;2023-03-23T03:13:30;12.30;99.90
23685;DHT22;12020;51.384;6.908;2023-03-23T03:21:08;12.30;99.90
23685;DHT22;12020;51.384;6.908;2023-03-23T03:23:38;12.20;99.90
23685;DHT22;12020;51.384;6.908;2023-03-23T03:26:07;12.20;99.90
23685;DHT22;12020;51.384;6.908;2023-03-23T03:28:35;12.20;99.90
23685;DHT22;12020;51.384;6.908;2023-03-23T03:31:03;12.20;99.90
23685;DHT22;12020;51.384;6.908;2023-03-23T03:33:30;12.20;99.90
23685;DHT22;12020;51.384;6.908;2023-03-23T03:36:03;12.20;99.90
23685;DHT22;12020;51.384;6.908;2023-03-23T03:38:29;12.20;99.90
23685;DHT22;12020;51.384;6.908;2023-03-23T03:40:55;12.20;99.90
23685;DHT22;12020;51.384;6.908;2023-03-23T03:43:21;12.20;99.90
23685;DHT22;12020;51.384;6.908;2023-03-23T03:45:47;12.20;99.90
23685;DHT22;12020;51.384;6.908;2023-03-23T03:48:13;12.30;99.90
23685;DHT22;12020;51.384;6.908;2023-03-23T03:50:38;12.20;99.90
23685;DHT22;12020;51.384;6.908;2023-03-23T03:53:05;12.30;99.90
23685;DHT22;12020;51.384;6.908;2023-03-23T03:55:32;12.30;99.90
23685;DHT22;12020;51.384;6.908;2023-03-23T03:58:02;12.30;99.90
23685;DHT22;12020;51.384;6.908;2023-03-23T04:00:29;12.30;99.90
23685;DHT22;12020;51.384;6.908;2023-03-23T04:02:55;12.30;99.90
23685;DHT22;12020;51.384;6.908;2023-03-23T04:05:22;12.30;99.90
23685;DHT22;12020;51.384;6.908;2023-03-23T04:07:48;12.30;99.90
23685;DHT22;12020;51.384;6.908;2023-03-23T04:10:18;12.30;99.90
23685;DHT22;12020;51.384;6.908;2023-03-23T04:12:50;12.30;99.90
23685;DHT22;12020;51.384;6.908;2023-03-23T04:15:17;12.30;99.90
23685;DHT22;12020;51.384;6.908;2023-03-23T04:17:42;12.30;99.90
23685;DHT22;12020;51.384;6.908;2023-03-23T04:20:09;12.30;99.90
23685;DHT22;12020;51.384;6.908;2023-03-23T04:22:46;12.30;99.90
23685;DHT22;12020;51.384;6.908;2023-03-23T04:25:15;12.30;99.90
23685;DHT22;12020;51.384;6.908;2023-03-23T04:27:43;12.30;99.90
23685;DHT22;12020;51.384;6.908;2023-03-23T04:30:10;12.30;99.90
23685;DHT22;12020;51.384;6.908;2023-03-23T04:32:36;12.30;99.90
23685;DHT22;12020;51.384;6.908;2023-03-23T04:35:08;12.30;99.90
23685;DHT22;12020;51.384;6.908;2023-03-23T04:37:33;12.30;99.90
23685;DHT22;12020;51.384;6.908;2023-03-23T04:40:00;12.30;99.90
23685;DHT22;12020;51.384;6.908;2023-03-23T04:42:30;12.40;99.90
23685;DHT22;12020;51.384;6.908;2023-03-23T04:44:57;12.40;99.90
23685;DHT22;12020;51.384;6.908;2023-03-23T04:47:24;12.40;99.90
23685;DHT22;12020;51.384;6.908;2023-03-23T04:49:50;12.40;99.90
23685;DHT22;12020;51.384;6.908;2023-03-23T04:52:17;12.40;99.90
23685;DHT22;12020;51.384;6.908;2023-03-23T04:54:43;12.40;99.90
23685;DHT22;12020;51.384;6.908;2023-03-23T04:57:09;12.40;99.90
23685;DHT22;12020;51.384;6.908;2023-03-23T04:59:35;12.50;99.90
23685;DHT22;12020;51.384;6.908;2023-03-23T05:02:01;12.50;99.90
23685;DHT22;12020;51.384;6.908;2023-03-23T05:04:27;12.50;99.90
23685;DHT22;12020;51.384;6.908;2023-03-23T05:06:53;12.50;99.90
23685;DHT22;12020;51.384;6.908;2023-03-23T05:09:19;12.50;99.90
23685;DHT22;12020;51.384;6.908;2023-03-23T05:11:45;12.50;99.90
23685;DHT22;12020;51.384;6.908;2023-03-23T05:14:11;12.50;99.90
23685;DHT22;12020;51.384;6.908;2023-03-23T05:16:37;12.50;99.90
23685;DHT22;12020;51.384;6.908;2023-03-23T05:19:03;12.50;99.90
23685;DHT22;12020;51.384;6.908;2023-03-23T05:21:30;12.50;99.90
23685;DHT22;12020;51.384;6.908;2023-03-23T05:23:56;12.60;99.90
23685;DHT22;12020;51.384;6.908;2023-03-23T05:26:22;12.60;99.90
23685;DHT22;12020;51.384;6.908;2023-03-23T05:28:50;12.50;99.90
23685;DHT22;12020;51.384;6.908;2023-03-23T05:31:18;12.50;99.90
23685;DHT22;12020;51.384;6.908;2023-03-23T05:33:44;12.60;99.90
23685;DHT22;12020;51.384;6.908;2023-03-23T05:36:10;12.60;99.90
23685;DHT22;12020;51.384;6.908;2023-03-23T05:38:39;12.60;99.90
23685;DHT22;12020;51.384;6.908;2023-03-23T05:41:07;12.60;99.90
23685;DHT22;12020;51.384;6.908;2023-03-23T05:43:33;12.60;99.90
23685;DHT22;12020;51.384;6.908;2023-03-23T05:45:59;12.60;99.90
23685;DHT22;12020;51.384;6.908;2023-03-23T05:48:25;12.60;99.90
23685;DHT22;12020;51.384;6.908;2023-03-23T05:50:51;12.60;99.90
23685;DHT22;12020;51.384;6.908;2023-03-23T05:53:18;12.60;99.90
23685;DHT22;12020;51.384;6.908;2023-03-23T05:55:43;12.60;99.90
23685;DHT22;12020;51.384;6.908;2023-03-23T05:58:10;12.60;99.90
23685;DHT22;12020;51.384;6.908;2023-03-23T06:00:36;12.60;99.90
23685;DHT22;12020;51.384;6.908;2023-03-23T06:03:01;12.60;99.90
23685;DHT22;12020;51.384;6.908;2023-03-23T06:05:27;12.70;99.90
23685;DHT22;12020;51.384;6.908;2023-03-23T06:07:54;12.70;99.90
23685;DHT22;12020;51.384;6.908;2023-03-23T06:10:20;12.70;99.90
23685;DHT22;12020;51.384;6.908;2023-03-23T06:12:47;12.70;99.90
23685;DHT22;12020;51.384;6.908;2023-03-23T06:15:12;12.70;99.90
23685;DHT22;12020;51.384;6.908;2023-03-23T06:17:38;12.70;99.90
23685;DHT22;12020;51.384;6.908;2023-03-23T06:20:04;12.70;99.90
23685;DHT22;12020;51.384;6.908;2023-03-23T06:22:37;12.70;99.90
23685;DHT22;12020;51.384;6.908;2023-03-23T06:25:04;12.80;99.90
23685;DHT22;12020;51.384;6.908;2023-03-23T06:27:30;12.80;99.90
23685;DHT22;12020;51.384;6.908;2023-03-23T06:29:56;12.80;99.90
23685;DHT22;12020;51.384;6.908;2023-03-23T06:32:22;12.80;99.90
23685;DHT22;12020;51.384;6.908;2023-03-23T06:34:48;12.80;99.90
23685;DHT22;12020;51.384;6.908;2023-03-23T06:37:13;12.80;99.90
23685;DHT22;12020;51.384;6.908;2023-03-23T06:39:41;12.80;99.90
23685;DHT22;12020;51.384;6.908;2023-03-23T06:42:09;12.80;99.90
23685;DHT22;12020;51.384;6.908;2023-03-23T06:44:36;12.80;99.90
23685;DHT22;12020;51.384;6.908;2023-03-23T06:47:03;12.90;99.90
23685;DHT22;12020;51.384;6.908;2023-03-23T06:49:29;12.90;99.90
23685;DHT22;12020;51.384;6.908;2023-03-23T06:51:55;12.90;99.90
23685;DHT22;12020;51.384;6.908;2023-03-23T06:54:25;12.90;99.90
23685;DHT22;12020;51.384;6.908;2023-03-23T06:56:51;12.90;99.90
23685;DHT22;12020;51.384;6.908;2023-03-23T06:59:17;12.90;99.90
23685;DHT22;12020;51.384;6.908;2023-03-23T07:01:46;13.00;99.90
23685;DHT22;12020;51.384;6.908;2023-03-23T07:04:12;13.00;99.90
23685;DHT22;12020;51.384;6.908;2023-03-23T07:06:38;13.00;99.90
23685;DHT22;12020;51.384;6.908;2023-03-23T07:09:04;13.00;99.90
23685;DHT22;12020;51.384;6.908;2023-03-23T07:11:33;13.00;99.90
23685;DHT22;12020;51.384;6.908;2023-03-23T07:13:58;13.00;99.90
23685;DHT22;12020;51.384;6.908;2023-03-23T07:16:24;13.10;99.90
23685;DHT22;12020;51.384;6.908;2023-03-23T07:18:51;13.10;99.90
23685;DHT22;12020;51.384;6.908;2023-03-23T07:21:17;13.10;99.90
23685;DHT22;12020;51.384;6.908;2023-03-23T07:23:42;13.10;99.90
23685;DHT22;12020;51.384;6.908;2023-03-23T07:26:08;13.10;99.90
23685;DHT22;12020;51.384;6.908;2023-03-23T07:28:34;13.10;99.90
23685;DHT22;12020;51.384;6.908;2023-03-23T07:31:00;13.10;99.90
23685;DHT22;12020;51.384;6.908;2023-03-23T07:33:26;13.10;99.90
23685;DHT22;12020;51.384;6.908;2023-03-23T07:35:52;13.10;99.90
23685;DHT22;12020;51.384;6.908;2023-03-23T07:38:17;13.10;99.90
23685;DHT22;12020;51.384;6.908;2023-03-23T07:40:43;13.10;99.90
23685;DHT22;12020;51.384;6.908;2023-03-23T07:43:10;13.10;99.90
23685;DHT22;12020;51.384;6.908;2023-03-23T07:45:36;13.10;99.90
23685;DHT22;12020;51.384;6.908;2023-03-23T07:48:02;13.10;99.90
23685;DHT22;12020;51.384;6.908;2023-03-23T07:50:28;13.10;99.90
23685;DHT22;12020;51.384;6.908;2023-03-23T07:52:56;13.10;99.90
23685;DHT22;12020;51.384;6.908;2023-03-23T07:55:22;13.10;99.90
23685;DHT22;12020;51.384;6.908;2023-03-23T07:57:52;13.10;99.90
23685;DHT22;12020;51.384;6.908;2023-03-23T08:00:19;13.10;99.90
23685;DHT22;12020;51.384;6.908;2023-03-23T08:02:46;13.20;99.90
23685;DHT22;12020;51.384;6.908;2023-03-23T08:05:12;13.20;99.90
23685;DHT22;12020;51.384;6.908;2023-03-23T08:07:39;13.20;99.90
23685;DHT22;12020;51.384;6.908;2023-03-23T08:10:06;13.20;99.90
23685;DHT22;12020;51.384;6.908;2023-03-23T08:12:35;13.20;99.90
23685;DHT22;12020;51.384;6.908;2023-03-23T08:15:01;13.20;99.90
23685;DHT22;12020;51.384;6.908;2023-03-23T08:17:27;13.20;99.90
23685;DHT22;12020;51.384;6.908;2023-03-23T08:19:52;13.30;99.90
23685;DHT22;12020;51.384;6.908;2023-03-23T08:22:18;13.30;99.90
23685;DHT22;12020;51.384;6.908;2023-03-23T08:24:44;13.30;99.90
23685;DHT22;12020;51.384;6.908;2023-03-23T08:27:10;13.30;99.90
23685;DHT22;12020;51.384;6.908;2023-03-23T08:29:35;13.40;99.90
23685;DHT22;12020;51.384;6.908;2023-03-23T08:32:01;13.40;99.90
23685;DHT22;12020;51.384;6.908;2023-03-23T08:34:28;13.40;99.90
23685;DHT22;12020;51.384;6.908;2023-03-23T08:36:57;13.50;99.90
23685;DHT22;12020;51.384;6.908;2023-03-23T08:39:23;13.50;99.90
23685;DHT22;12020;51.384;6.908;2023-03-23T08:41:49;13.50;99.90
23685;DHT22;12020;51.384;6.908;2023-03-23T08:44:14;13.50;99.90
23685;DHT22;12020;51.384;6.908;2023-03-23T08:46:41;13.60;99.90
23685;DHT22;12020;51.384;6.908;2023-03-23T08:49:07;13.60;99.90
23685;DHT22;12020;51.384;6.908;2023-03-23T08:51:33;13.60;99.90
23685;DHT22;12020;51.384;6.908;2023-03-23T08:53:59;13.60;99.90
23685;DHT22;12020;51.384;6.908;2023-03-23T08:56:25;13.70;99.90
23685;DHT22;12020;51.384;6.908;2023-03-23T08:58:51;13.70;99.90
23685;DHT22;12020;51.384;6.908;2023-03-23T09:01:17;13.70;99.90
23685;DHT22;12020;51.384;6.908;2023-03-23T09:03:42;13.70;99.90
23685;DHT22;12020;51.384;6.908;2023-03-23T09:06:09;13.80;99.90
23685;DHT22;12020;51.384;6.908;2023-03-23T09:08:38;13.80;99.90
23685;DHT22;12020;51.384;6.908;2023-03-23T09:11:09;13.80;99.90
23685;DHT22;12020;51.384;6.908;2023-03-23T09:13:36;13.80;99.90
23685;DHT22;12020;51.384;6.908;2023-03-23T09:16:03;13.80;99.90
23685;DHT22;12020;51.384;6.908;2023-03-23T09:18:29;13.80;99.90
23685;DHT22;12020;51.384;6.908;2023-03-23T09:20:59;13.70;99.90
23685;DHT22;12020;51.384;6.908;2023-03-23T09:23:26;13.70;99.90
23685;DHT22;12020;51.384;6.908;2023-03-23T09:25:52;13.70;99.90
23685;DHT22;12020;51.384;6.908;2023-03-23T09:28:18;13.70;99.90
23685;DHT22;12020;51.384;6.908;2023-03-23T09:30:44;13.70;99.90
23685;DHT22;12020;51.384;6.908;2023-03-23T09:33:11;13.70;99.90
23685;DHT22;12020;51.384;6.908;2023-03-23T09:35:36;13.80;99.90
23685;DHT22;12020;51.384;6.908;2023-03-23T09:38:04;13.80;99.90
23685;DHT22;12020;51.384;6.908;2023-03-23T09:40:51;13.80;99.90
23685;DHT22;12020;51.384;6.908;2023-03-23T09:46:18;13.70;99.90
23685;DHT22;12020;51.384;6.908;2023-03-23T09:48:55;13.80;99.90
23685;DHT22;12020;51.384;6.908;2023-03-23T09:54:37;13.80;99.90
23685;DHT22;12020;51.384;6.908;2023-03-23T09:57:05;13.70;99.90
23685;DHT22;12020;51.384;6.908;2023-03-23T10:00:10;13.60;99.90
23685;DHT22;12020;51.384;6.908;2023-03-23T10:02:59;13.40;99.90
23685;DHT22;12020;51.384;6.908;2023-03-23T10:08:05;12.80;99.90
23685;DHT22;12020;51.384;6.908;2023-03-23T10:10:48;12.70;99.90
23685;DHT22;12020;51.384;6.908;2023-03-23T10:15:57;12.50;99.90
23685;DHT22;12020;51.384;6.908;2023-03-23T10:21:14;12.50;99.90
23685;DHT22;12020;51.384;6.908;2023-03-23T10:23:59;12.50;99.90
23685;DHT22;12020;51.384;6.908;2023-03-23T10:29:31;12.40;99.90
23685;DHT22;12020;51.384;6.908;2023-03-23T10:32:34;12.40;99.90
23685;DHT22;12020;51.384;6.908;2023-03-23T10:35:04;12.40;99.90
23685;DHT22;12020;51.384;6.908;2023-03-23T10:37:37;12.40;99.90
23685;DHT22;12020;51.384;6.908;2023-03-23T10:40:06;12.40;99.90
23685;DHT22;12020;51.384;6.908;2023-03-23T10:42:38;12.30;99.90
23685;DHT22;12020;51.384;6.908;2023-03-23T10:47:51;12.20;99.90
23685;DHT22;12020;51.384;6.908;2023-03-23T10:50:24;12.20;99.90
23685;DHT22;12020;51.384;6.908;2023-03-23T10:52:52;12.20;99.90
23685;DHT22;12020;51.384;6.908;2023-03-23T10:55:23;12.20;99.90
23685;DHT22;12020;51.384;6.908;2023-03-23T10:58:06;12.10;99.90
23685;DHT22;12020;51.384;6.908;2023-03-23T11:00:33;12.10;99.90
23685;DHT22;12020;51.384;6.908;2023-03-23T11:03:17;12.00;99.90
23685;DHT22;12020;51.384;6.908;2023-03-23T11:05:52;12.00;99.90
23685;DHT22;12020;51.384;6.908;2023-03-23T11:08:20;11.90;99.90
23685;DHT22;12020;51.384;6.908;2023-03-23T11:10:51;12.00;99.90
23685;DHT22;12020;51.384;6.908;2023-03-23T11:13:19;11.90;99.90
23685;DHT22;12020;51.384;6.908;2023-03-23T11:15:47;11.90;99.90
23685;DHT22;12020;51.384;6.908;2023-03-23T11:18:25;11.90;99.90
23685;DHT22;12020;51.384;6.908;2023-03-23T11:20:55;11.80;99.90
23685;DHT22;12020;51.384;6.908;2023-03-23T11:23:38;11.80;99.90
23685;DHT22;12020;51.384;6.908;2023-03-23T11:26:22;11.80;99.90
23685;DHT22;12020;51.384;6.908;2023-03-23T11:28:55;11.80;99.90
23685;DHT22;12020;51.384;6.908;2023-03-23T11:31:23;11.80;99.90
23685;DHT22;12020;51.384;6.908;2023-03-23T11:33:54;11.80;99.90
23685;DHT22;12020;51.384;6.908;2023-03-23T11:36:27;11.80;99.90
23685;DHT22;12020;51.384;6.908;2023-03-23T11:38:54;11.80;99.90
23685;DHT22;12020;51.384;6.908;2023-03-23T11:41:25;11.80;99.90
23685;DHT22;12020;51.384;6.908;2023-03-23T11:43:53;11.70;99.90
23685;DHT22;12020;51.384;6.908;2023-03-23T11:46:29;11.80;99.90
23685;DHT22;12020;51.384;6.908;2023-03-23T11:49:05;11.80;99.90
23685;DHT22;12020;51.384;6.908;2023-03-23T11:51:49;11.80;99.90
23685;DHT22;12020;51.384;6.908;2023-03-23T11:54:36;11.90;99.90
23685;DHT22;12020;51.384;6.908;2023-03-23T11:57:10;11.90;99.90
23685;DHT22;12020;51.384;6.908;2023-03-23T11:59:37;12.00;99.90
23685;DHT22;12020;51.384;6.908;2023-03-23T12:02:24;12.00;99.90
23685;DHT22;12020;51.384;6.908;2023-03-23T12:16:11;12.00;99.90
23685;DHT22;12020;51.384;6.908;2023-03-23T12:24:13;12.00;99.90
23685;DHT22;12020;51.384;6.908;2023-03-23T12:45:52;11.90;99.90
23685;DHT22;12020;51.384;6.908;2023-03-23T12:48:27;11.90;99.90
23685;DHT22;12020;51.384;6.908;2023-03-23T12:53:55;12.00;99.90
23685;DHT22;12020;51.384;6.908;2023-03-23T12:56:40;12.10;99.90
23685;DHT22;12020;51.384;6.908;2023-03-23T13:02:13;12.10;99.90
23685;DHT22;12020;51.384;6.908;2023-03-23T13:04:45;12.10;99.90
23685;DHT22;12020;51.384;6.908;2023-03-23T13:07:28;12.10;99.90
23685;DHT22;12020;51.384;6.908;2023-03-23T13:10:07;12.10;99.90
23685;DHT22;12020;51.384;6.908;2023-03-23T13:12:38;12.20;99.90
23685;DHT22;12020;51.384;6.908;2023-03-23T13:20:55;12.30;99.90
23685;DHT22;12020;51.384;6.908;2023-03-23T13:23:53;12.30;99.90
23685;DHT22;12020;51.384;6.908;2023-03-23T13:26:22;12.40;99.90
23685;DHT22;12020;51.384;6.908;2023-03-23T13:29:08;12.40;99.90
23685;DHT22;12020;51.384;6.908;2023-03-23T13:31:38;12.40;99.90
23685;DHT22;12020;51.384;6.908;2023-03-23T13:34:31;12.50;99.90
23685;DHT22;12020;51.384;6.908;2023-03-23T13:37:08;12.50;99.90
23685;DHT22;12020;51.384;6.908;2023-03-23T13:39:47;12.60;99.90
23685;DHT22;12020;51.384;6.908;2023-03-23T13:50:03;12.90;99.90
23685;DHT22;12020;51.384;6.908;2023-03-23T14:10:56;13.10;99.90
23685;DHT22;12020;51.384;6.908;2023-03-23T14:14:04;13.10;99.90
23685;DHT22;12020;51.384;6.908;2023-03-23T14:16:40;13.10;99.90
23685;DHT22;12020;51.384;6.908;2023-03-23T14:21:48;13.10;99.90
23685;DHT22;12020;51.384;6.908;2023-03-23T14:24:25;13.10;99.90
23685;DHT22;12020;51.384;6.908;2023-03-23T14:26:54;13.20;99.90
23685;DHT22;12020;51.384;6.908;2023-03-23T14:29:26;13.20;99.90
23685;DHT22;12020;51.384;6.908;2023-03-23T14:31:57;13.30;99.90
23685;DHT22;12020;51.384;6.908;2023-03-23T14:34:26;13.30;99.90
23685;DHT22;12020;51.384;6.908;2023-03-23T14:36:54;13.40;99.90
23685;DHT22;12020;51.384;6.908;2023-03-23T14:39:35;13.50;99.90
23685;DHT22;12020;51.384;6.908;2023-03-23T14:42:14;13.50;99.90
23685;DHT22;12020;51.384;6.908;2023-03-23T14:44:44;13.50;99.90
23685;DHT22;12020;51.384;6.908;2023-03-23T14:47:29;13.50;99.90
23685;DHT22;12020;51.384;6.908;2023-03-23T14:49:57;13.50;99.90
23685;DHT22;12020;51.384;6.908;2023-03-23T14:52:26;13.40;99.90
23685;DHT22;12020;51.384;6.908;2023-03-23T14:54:52;13.40;99.90
23685;DHT22;12020;51.384;6.908;2023-03-23T14:57:25;13.40;99.90
23685;DHT22;12020;51.384;6.908;2023-03-23T14:59:51;13.40;99.90
23685;DHT22;12020;51.384;6.908;2023-03-23T15:02:27;13.40;99.90
23685;DHT22;12020;51.384;6.908;2023-03-23T15:04:59;13.40;99.90
23685;DHT22;12020;51.384;6.908;2023-03-23T15:07:30;13.40;99.90
23685;DHT22;12020;51.384;6.908;2023-03-23T15:09:56;13.40;99.90
23685;DHT22;12020;51.384;6.908;2023-03-23T15:12:26;13.40;99.90
23685;DHT22;12020;51.384;6.908;2023-03-23T15:14:56;13.40;99.90
23685;DHT22;12020;51.384;6.908;2023-03-23T15:17:35;13.50;99.90
23685;DHT22;12020;51.384;6.908;2023-03-23T15:22:46;13.60;99.90
23685;DHT22;12020;51.384;6.908;2023-03-23T15:28:14;13.80;99.90
23685;DHT22;12020;51.384;6.908;2023-03-23T15:30:50;13.80;99.90
23685;DHT22;12020;51.384;6.908;2023-03-23T15:33:16;13.80;99.90
23685;DHT22;12020;51.384;6.908;2023-03-23T15:35:47;13.90;99.90
23685;DHT22;12020;51.384;6.908;2023-03-23T15:40:52;13.90;99.90
23685;DHT22;12020;51.384;6.908;2023-03-23T15:43:51;14.00;99.90
23685;DHT22;12020;51.384;6.908;2023-03-23T15:51:21;14.00;99.90
23685;DHT22;12020;51.384;6.908;2023-03-23T15:53:48;14.00;99.90
23685;DHT22;12020;51.384;6.908;2023-03-23T15:56:15;14.00;99.90
23685;DHT22;12020;51.384;6.908;2023-03-23T15:58:41;14.00;99.90
23685;DHT22;12020;51.384;6.908;2023-03-23T16:01:13;14.00;99.90
23685;DHT22;12020;51.384;6.908;2023-03-23T16:03:53;14.00;99.90
23685;DHT22;12020;51.384;6.908;2023-03-23T16:06:20;14.00;99.90
23685;DHT22;12020;51.384;6.908;2023-03-23T16:08:47;14.00;99.90
23685;DHT22;12020;51.384;6.908;2023-03-23T16:11:15;14.00;99.90
23685;DHT22;12020;51.384;6.908;2023-03-23T16:13:41;14.00;99.90
23685;DHT22;12020;51.384;6.908;2023-03-23T16:16:22;14.00;99.90
23685;DHT22;12020;51.384;6.908;2023-03-23T16:18:49;14.00;99.90
23685;DHT22;12020;51.384;6.908;2023-03-23T16:21:14;14.00;99.90
23685;DHT22;12020;51.384;6.908;2023-03-23T16:23:41;14.00;99.90
23685;DHT22;12020;51.384;6.908;2023-03-23T16:26:11;14.00;99.90
23685;DHT22;12020;51.384;6.908;2023-03-23T16:28:36;14.00;99.90
23685;DHT22;12020;51.384;6.908;2023-03-23T16:31:02;13.90;99.90
23685;DHT22;12020;51.384;6.908;2023-03-23T16:33:28;13.90;99.90
23685;DHT22;12020;51.384;6.908;2023-03-23T16:35:54;13.90;99.90
23685;DHT22;12020;51.384;6.908;2023-03-23T16:38:22;13.90;99.90
23685;DHT22;12020;51.384;6.908;2023-03-23T16:40:47;13.90;99.90
23685;DHT22;12020;51.384;6.908;2023-03-23T16:43:13;13.90;99.90
23685;DHT22;12020;51.384;6.908;2023-03-23T16:45:41;13.90;99.90
23685;DHT22;12020;51.384;6.908;2023-03-23T16:48:07;13.90;99.90
23685;DHT22;12020;51.384;6.908;2023-03-23T16:50:34;13.90;99.90
23685;DHT22;12020;51.384;6.908;2023-03-23T16:53:01;13.80;99.90
23685;DHT22;12020;51.384;6.908;2023-03-23T16:55:27;13.80;99.90
23685;DHT22;12020;51.384;6.908;2023-03-23T16:57:54;13.80;99.90
23685;DHT22;12020;51.384;6.908;2023-03-23T17:00:20;13.80;99.90
23685;DHT22;12020;51.384;6.908;2023-03-23T17:02:49;13.80;99.90
23685;DHT22;12020;51.384;6.908;2023-03-23T17:05:17;13.80;99.90
23685;DHT22;12020;51.384;6.908;2023-03-23T17:07:44;13.80;99.90
23685;DHT22;12020;51.384;6.908;2023-03-23T17:10:11;13.80;99.90
23685;DHT22;12020;51.384;6.908;2023-03-23T17:12:38;13.70;99.90
23685;DHT22;12020;51.384;6.908;2023-03-23T17:15:05;13.80;99.90
23685;DHT22;12020;51.384;6.908;2023-03-23T17:17:31;13.70;99.90
23685;DHT22;12020;51.384;6.908;2023-03-23T17:19:57;13.70;99.90
23685;DHT22;12020;51.384;6.908;2023-03-23T17:22:25;13.80;99.90
23685;DHT22;12020;51.384;6.908;2023-03-23T17:24:51;13.70;99.90
23685;DHT22;12020;51.384;6.908;2023-03-23T17:27:18;13.70;99.90
23685;DHT22;12020;51.384;6.908;2023-03-23T17:29:44;13.80;99.90
23685;DHT22;12020;51.384;6.908;2023-03-23T17:32:10;13.70;99.90
23685;DHT22;12020;51.384;6.908;2023-03-23T17:34:36;13.70;99.90
23685;DHT22;12020;51.384;6.908;2023-03-23T17:37:02;13.70;99.90
23685;DHT22;12020;51.384;6.908;2023-03-23T17:39:28;13.70;99.90
23685;DHT22;12020;51.384;6.908;2023-03-23T17:41:55;13.80;99.90
23685;DHT22;12020;51.384;6.908;2023-03-23T17:44:20;13.80;99.90
23685;DHT22;12020;51.384;6.908;2023-03-23T17:46:46;13.80;99.90
23685;DHT22;12020;51.384;6.908;2023-03-23T17:49:11;13.80;99.90
23685;DHT22;12020;51.384;6.908;2023-03-23T17:51:37;13.80;99.90
23685;DHT22;12020;51.384;6.908;2023-03-23T17:54:03;13.80;99.90
23685;DHT22;12020;51.384;6.908;2023-03-23T17:56:38;13.80;99.90
23685;DHT22;12020;51.384;6.908;2023-03-23T17:59:07;13.90;99.90
23685;DHT22;12020;51.384;6.908;2023-03-23T18:01:37;13.90;99.90